createdAt,value
2018-04-04T00:00:58.642Z,14.42
2018-04-04T00:01:58.640Z,14.40
2018-04-04T00:02:58.640Z,14.39
2018-04-04T00:03:58.657Z,14.37
2018-04-04T00:04:58.604Z,14.29
2018-04-04T00:05:58.651Z,14.32
2018-04-04T00:06:58.624Z,14.37
2018-04-04T00:07:58.673Z,14.29
2018-04-04T00:08:58.675Z,14.25
2018-04-04T00:09:58.669Z,14.20
2018-04-04T00:10:58.679Z,14.09
2018-04-04T00:11:58.631Z,14.15
2018-04-04T00:12:58.619Z,14.10
2018-04-04T00:13:58.626Z,14.09
2018-04-04T00:14:58.700Z,13.96
2018-04-04T00:15:58.734Z,13.97
2018-04-04T00:16:58.682Z,13.95
2018-04-04T00:17:58.658Z,13.99
2018-04-04T00:18:58.741Z,13.91
2018-04-04T00:19:58.660Z,13.89
2018-04-04T00:20:58.705Z,13.81
2018-04-04T00:21:58.678Z,13.81
2018-04-04T00:22:58.680Z,13.77
2018-04-04T00:23:58.676Z,13.71
2018-04-04T00:24:58.684Z,13.79
2018-04-04T00:25:58.669Z,13.66
2018-04-04T00:26:58.659Z,13.64
2018-04-04T00:27:58.661Z,13.67
2018-04-04T00:28:58.698Z,13.71
2018-04-04T00:29:58.736Z,13.66
2018-04-04T00:30:58.688Z,13.59
2018-04-04T00:31:58.770Z,13.63
2018-04-04T00:32:58.679Z,13.57
2018-04-04T00:33:58.672Z,13.51
2018-04-04T00:34:58.752Z,13.45
2018-04-04T00:35:58.745Z,13.51
2018-04-04T00:36:58.736Z,13.46
2018-04-04T00:37:58.698Z,13.48
2018-04-04T00:38:58.735Z,13.55
2018-04-04T00:39:58.715Z,13.48
2018-04-04T00:40:58.695Z,13.41
2018-04-04T00:41:58.708Z,13.38
2018-04-04T00:42:58.772Z,13.32
2018-04-04T00:43:58.718Z,13.26
2018-04-04T00:44:58.737Z,13.26
2018-04-04T00:45:58.742Z,13.25
2018-04-04T00:46:58.744Z,13.25
2018-04-04T00:47:58.737Z,13.17
2018-04-04T00:48:58.742Z,13.19
2018-04-04T00:49:58.730Z,13.17
2018-04-04T00:50:58.715Z,13.15
2018-04-04T00:51:58.718Z,13.23
2018-04-04T00:52:58.768Z,13.14
2018-04-04T00:53:58.729Z,13.19
2018-04-04T00:54:58.718Z,13.10
2018-04-04T00:55:58.773Z,13.19
2018-04-04T00:56:58.746Z,13.17
2018-04-04T00:57:58.720Z,13.23
2018-04-04T00:58:58.771Z,13.12
2018-04-04T00:59:58.740Z,13.11
2018-04-04T01:00:58.739Z,13.10
2018-04-04T01:01:58.740Z,13.04
2018-04-04T01:02:58.774Z,13.10
2018-04-04T01:03:59.636Z,13.07
2018-04-04T01:04:58.812Z,13.05
2018-04-04T01:05:58.784Z,13.01
2018-04-04T01:06:58.739Z,13.00
2018-04-04T01:07:58.756Z,12.96
2018-04-04T01:08:58.796Z,12.92
2018-04-04T01:09:58.768Z,12.97
2018-04-04T01:10:58.816Z,12.97
2018-04-04T01:11:58.791Z,12.90
2018-04-04T01:12:58.812Z,12.97
2018-04-04T01:13:58.749Z,12.90
2018-04-04T01:14:58.767Z,12.87
2018-04-04T01:15:58.756Z,12.87
2018-04-04T01:16:58.770Z,12.95
2018-04-04T01:17:58.769Z,12.83
2018-04-04T01:18:58.774Z,12.77
2018-04-04T01:19:58.819Z,12.77
2018-04-04T01:20:58.813Z,12.78
2018-04-04T01:21:58.764Z,12.85
2018-04-04T01:22:58.807Z,12.79
2018-04-04T01:23:58.813Z,12.77
2018-04-04T01:24:58.837Z,12.71
2018-04-04T01:25:58.820Z,12.85
2018-04-04T01:26:58.814Z,12.86
2018-04-04T01:27:58.805Z,12.72
2018-04-04T01:28:58.801Z,12.82
2018-04-04T01:29:58.862Z,12.68
2018-04-04T01:30:58.819Z,12.72
2018-04-04T01:31:58.848Z,12.72
2018-04-04T01:32:58.865Z,12.57
2018-04-04T01:33:58.846Z,12.70
2018-04-04T01:34:58.800Z,12.68
2018-04-04T01:35:58.790Z,12.79
2018-04-04T01:36:58.857Z,12.72
2018-04-04T01:37:58.799Z,12.72
2018-04-04T01:38:58.882Z,12.78
2018-04-04T01:39:58.812Z,12.72
2018-04-04T01:40:58.834Z,12.64
2018-04-04T01:41:58.844Z,12.70
2018-04-04T01:42:58.949Z,12.70
2018-04-04T01:43:58.863Z,12.64
2018-04-04T01:44:58.840Z,12.57
2018-04-04T01:45:58.852Z,12.60
2018-04-04T01:46:58.873Z,12.57
2018-04-04T01:47:58.878Z,12.54
2018-04-04T01:48:58.859Z,12.60
2018-04-04T01:49:58.831Z,12.53
2018-04-04T01:50:58.838Z,12.52
2018-04-04T01:51:58.822Z,12.54
2018-04-04T01:52:58.873Z,12.41
2018-04-04T01:53:58.831Z,12.42
2018-04-04T01:54:58.840Z,12.32
2018-04-04T01:55:58.890Z,12.38
2018-04-04T01:56:58.882Z,12.37
2018-04-04T01:57:58.838Z,12.32
2018-04-04T01:58:58.889Z,12.24
2018-04-04T01:59:58.840Z,12.17
2018-04-04T02:00:58.856Z,12.16
2018-04-04T02:01:58.895Z,12.12
2018-04-04T02:02:58.894Z,12.13
2018-04-04T02:03:58.854Z,12.10
2018-04-04T02:04:58.848Z,12.02
2018-04-04T02:05:58.896Z,12.01
2018-04-04T02:06:58.869Z,11.96
2018-04-04T02:07:59.036Z,11.90
2018-04-04T02:08:58.904Z,11.94
2018-04-04T02:09:58.878Z,11.82
2018-04-04T02:10:58.903Z,11.86
2018-04-04T02:11:58.910Z,11.94
2018-04-04T02:12:58.931Z,11.85
2018-04-04T02:13:58.925Z,11.80
2018-04-04T02:14:58.954Z,11.91
2018-04-04T02:15:58.882Z,11.83
2018-04-04T02:16:58.921Z,11.85
2018-04-04T02:17:58.921Z,11.88
2018-04-04T02:18:58.889Z,11.85
2018-04-04T02:19:58.917Z,11.86
2018-04-04T02:20:58.941Z,11.80
2018-04-04T02:21:58.917Z,11.80
2018-04-04T02:22:58.907Z,11.85
2018-04-04T02:23:58.950Z,11.88
2018-04-04T02:24:58.977Z,11.82
2018-04-04T02:25:58.912Z,11.78
2018-04-04T02:26:58.916Z,11.62
2018-04-04T02:27:58.986Z,11.67
2018-04-04T02:28:58.931Z,11.64
2018-04-04T02:29:58.968Z,11.72
2018-04-04T02:30:58.943Z,11.61
2018-04-04T02:31:58.906Z,11.58
2018-04-04T02:32:58.975Z,11.55
2018-04-04T02:33:58.923Z,11.49
2018-04-04T02:34:58.945Z,11.49
2018-04-04T02:35:58.906Z,11.40
2018-04-04T02:36:59.070Z,11.36
2018-04-04T02:37:58.967Z,11.46
2018-04-04T02:38:58.950Z,11.46
2018-04-04T02:39:59.029Z,11.43
2018-04-04T02:40:58.986Z,11.40
2018-04-04T02:41:58.984Z,11.32
2018-04-04T02:42:58.938Z,11.40
2018-04-04T02:43:58.958Z,11.39
2018-04-04T02:44:58.959Z,11.32
2018-04-04T02:45:58.982Z,11.36
2018-04-04T02:46:58.975Z,11.39
2018-04-04T02:47:58.993Z,11.32
2018-04-04T02:48:58.986Z,11.29
2018-04-04T02:49:58.940Z,11.29
2018-04-04T02:50:58.982Z,11.27
2018-04-04T02:51:58.986Z,11.27
2018-04-04T02:52:58.947Z,11.29
2018-04-04T02:53:58.987Z,11.27
2018-04-04T02:54:58.973Z,11.22
2018-04-04T02:55:58.972Z,11.19
2018-04-04T02:56:59.670Z,11.15
2018-04-04T02:57:59.082Z,11.21
2018-04-04T02:58:59.021Z,11.17
2018-04-04T02:59:59.014Z,11.19
2018-04-04T03:00:58.995Z,11.17
2018-04-04T03:01:59.044Z,11.14
2018-04-04T03:02:58.961Z,11.14
2018-04-04T03:03:58.969Z,11.14
2018-04-04T03:04:59.001Z,11.14
2018-04-04T03:05:59.018Z,11.11
2018-04-04T03:06:58.993Z,11.14
2018-04-04T03:07:58.993Z,11.09
2018-04-04T03:08:58.956Z,11.07
2018-04-04T03:09:59.032Z,10.97
2018-04-04T03:10:59.018Z,10.94
2018-04-04T03:11:59.052Z,11.04
2018-04-04T03:12:59.016Z,10.94
2018-04-04T03:13:59.016Z,10.92
2018-04-04T03:14:59.035Z,11.02
2018-04-04T03:15:59.055Z,11.02
2018-04-04T03:16:58.997Z,10.91
2018-04-04T03:17:58.996Z,10.89
2018-04-04T03:18:59.053Z,10.96
2018-04-04T03:19:59.054Z,10.99
2018-04-04T03:20:59.032Z,10.88
2018-04-04T03:21:58.999Z,10.89
2018-04-04T03:22:59.101Z,10.85
2018-04-04T03:23:59.055Z,10.91
2018-04-04T03:24:59.083Z,10.76
2018-04-04T03:25:59.015Z,10.85
2018-04-04T03:26:59.003Z,10.85
2018-04-04T03:27:58.993Z,10.84
2018-04-04T03:28:58.992Z,10.82
2018-04-04T03:29:59.023Z,10.79
2018-04-04T03:30:59.026Z,10.82
2018-04-04T03:31:59.053Z,10.85
2018-04-04T03:32:59.133Z,10.86
2018-04-04T03:33:59.029Z,10.84
2018-04-04T03:34:59.007Z,10.78
2018-04-04T03:35:59.004Z,10.82
2018-04-04T03:36:59.067Z,10.81
2018-04-04T03:37:59.121Z,10.81
2018-04-04T03:38:59.070Z,10.79
2018-04-04T03:39:59.099Z,10.74
2018-04-04T03:40:59.093Z,10.71
2018-04-04T03:41:59.069Z,10.79
2018-04-04T03:42:59.078Z,10.73
2018-04-04T03:43:59.055Z,10.68
2018-04-04T03:44:59.058Z,10.76
2018-04-04T03:45:59.103Z,10.78
2018-04-04T03:46:59.076Z,10.73
2018-04-04T03:47:59.062Z,10.73
2018-04-04T03:48:59.052Z,10.70
2018-04-04T03:49:59.047Z,10.67
2018-04-04T03:50:59.088Z,10.73
2018-04-04T03:51:59.052Z,10.84
2018-04-04T03:52:59.061Z,10.70
2018-04-04T03:53:59.036Z,10.78
2018-04-04T03:54:59.095Z,10.74
2018-04-04T03:55:59.092Z,10.73
2018-04-04T03:56:59.036Z,10.74
2018-04-04T03:57:59.094Z,10.68
2018-04-04T03:58:59.069Z,10.68
2018-04-04T03:59:59.113Z,10.73
2018-04-04T04:00:59.068Z,10.70
2018-04-04T04:01:59.081Z,10.67
2018-04-04T04:02:59.084Z,10.74
2018-04-04T04:03:59.070Z,10.64
2018-04-04T04:04:59.050Z,10.68
2018-04-04T04:05:59.098Z,10.55
2018-04-04T04:06:59.069Z,10.64
2018-04-04T04:07:59.062Z,10.55
2018-04-04T04:08:59.079Z,10.53
2018-04-04T04:09:59.065Z,10.53
2018-04-04T04:10:59.065Z,10.59
2018-04-04T04:11:59.081Z,10.53
2018-04-04T04:12:59.105Z,10.48
2018-04-04T04:13:59.690Z,10.48
2018-04-04T04:14:59.118Z,10.47
2018-04-04T04:15:59.093Z,10.48
2018-04-04T04:16:59.127Z,10.44
2018-04-04T04:17:59.133Z,10.45
2018-04-04T04:18:59.063Z,10.47
2018-04-04T04:19:59.121Z,10.47
2018-04-04T04:20:59.065Z,10.44
2018-04-04T04:21:59.130Z,10.48
2018-04-04T04:22:59.112Z,10.45
2018-04-04T04:23:59.065Z,10.41
2018-04-04T04:24:59.126Z,10.45
2018-04-04T04:25:59.141Z,10.44
2018-04-04T04:26:59.091Z,10.47
2018-04-04T04:27:59.098Z,10.51
2018-04-04T04:28:59.119Z,10.48
2018-04-04T04:29:59.137Z,10.48
2018-04-04T04:30:59.109Z,10.48
2018-04-04T04:31:59.080Z,10.52
2018-04-04T04:32:59.081Z,10.45
2018-04-04T04:33:59.107Z,10.44
2018-04-04T04:34:59.246Z,10.48
2018-04-04T04:35:59.096Z,10.40
2018-04-04T04:36:59.221Z,10.40
2018-04-04T04:37:59.082Z,10.41
2018-04-04T04:38:59.124Z,10.36
2018-04-04T04:39:59.118Z,10.40
2018-04-04T04:40:59.134Z,10.40
2018-04-04T04:41:59.105Z,10.34
2018-04-04T04:42:59.117Z,10.34
2018-04-04T04:43:59.148Z,10.40
2018-04-04T04:44:59.696Z,10.30
2018-04-04T04:45:59.102Z,10.36
2018-04-04T04:46:59.092Z,10.34
2018-04-04T04:47:59.157Z,10.38
2018-04-04T04:48:59.116Z,10.41
2018-04-04T04:49:59.132Z,10.32
2018-04-04T04:50:59.171Z,10.45
2018-04-04T04:51:59.147Z,10.52
2018-04-04T04:52:59.183Z,10.47
2018-04-04T04:53:59.254Z,10.45
2018-04-04T04:54:59.103Z,10.47
2018-04-04T04:55:59.155Z,10.44
2018-04-04T04:56:59.133Z,10.53
2018-04-04T04:57:59.703Z,10.47
2018-04-04T04:58:59.121Z,10.45
2018-04-04T04:59:59.177Z,10.47
2018-04-04T05:00:59.155Z,10.52
2018-04-04T05:01:59.122Z,10.44
2018-04-04T05:02:59.118Z,10.51
2018-04-04T05:03:59.119Z,10.47
2018-04-04T05:04:59.130Z,10.48
2018-04-04T05:05:59.126Z,10.45
2018-04-04T05:06:59.169Z,10.45
2018-04-04T05:07:59.212Z,10.45
2018-04-04T05:08:59.143Z,10.45
2018-04-04T05:09:59.178Z,10.52
2018-04-04T05:10:59.134Z,10.44
2018-04-04T05:11:59.176Z,10.45
2018-04-04T05:12:59.151Z,10.42
2018-04-04T05:13:59.189Z,10.47
2018-04-04T05:14:59.184Z,10.47
2018-04-04T05:15:59.192Z,10.51
2018-04-04T05:16:59.171Z,10.48
2018-04-04T05:17:59.149Z,10.51
2018-04-04T05:18:59.198Z,10.47
2018-04-04T05:19:59.131Z,10.48
2018-04-04T05:20:59.182Z,10.52
2018-04-04T05:21:59.180Z,10.47
2018-04-04T05:22:59.169Z,10.47
2018-04-04T05:23:59.202Z,10.44
2018-04-04T05:24:59.190Z,10.61
2018-04-04T05:25:59.165Z,10.53
2018-04-04T05:26:59.151Z,10.47
2018-04-04T05:27:59.169Z,10.51
2018-04-04T05:28:59.218Z,10.47
2018-04-04T05:29:59.188Z,10.51
2018-04-04T05:30:59.191Z,10.61
2018-04-04T05:31:59.234Z,10.63
2018-04-04T05:32:59.191Z,10.55
2018-04-04T05:33:59.197Z,10.74
2018-04-04T05:34:59.145Z,10.66
2018-04-04T05:35:59.246Z,10.86
2018-04-04T05:36:59.242Z,11.09
2018-04-04T05:37:59.172Z,11.25
2018-04-04T05:38:59.161Z,11.98
2018-04-04T05:39:59.179Z,12.37
2018-04-04T05:40:59.709Z,12.86
2018-04-04T05:41:59.235Z,13.14
2018-04-04T05:42:59.276Z,13.69
2018-04-04T05:43:59.219Z,14.33
2018-04-04T05:44:59.206Z,14.40
2018-04-04T05:45:59.257Z,14.40
2018-04-04T05:46:59.193Z,14.69
2018-04-04T05:47:59.202Z,14.73
2018-04-04T05:48:59.209Z,15.07
2018-04-04T05:49:59.267Z,15.10
2018-04-04T05:50:59.218Z,14.92
2018-04-04T05:51:59.176Z,14.65
2018-04-04T05:52:59.165Z,14.64
2018-04-04T05:53:59.196Z,15.39
2018-04-04T05:54:59.245Z,16.09
2018-04-04T05:55:59.179Z,16.07
2018-04-04T05:56:59.218Z,15.84
2018-04-04T05:57:59.203Z,16.07
2018-04-04T05:58:59.311Z,16.30
2018-04-04T05:59:59.199Z,16.41
2018-04-04T06:00:59.222Z,15.84
2018-04-04T06:01:59.251Z,16.66
2018-04-04T06:02:59.215Z,17.00
2018-04-04T06:03:59.225Z,16.76
2018-04-04T06:04:59.720Z,16.52
2018-04-04T06:05:59.222Z,15.62
2018-04-04T06:06:59.260Z,14.81
2018-04-04T06:07:59.213Z,15.06
2018-04-04T06:08:59.238Z,15.29
2018-04-04T06:09:59.283Z,15.80
2018-04-04T06:10:59.324Z,16.66
2018-04-04T06:11:59.286Z,16.81
2018-04-04T06:12:59.227Z,16.96
2018-04-04T06:13:59.237Z,17.92
2018-04-04T06:14:59.248Z,18.05
2018-04-04T06:15:59.246Z,18.65
2018-04-04T06:17:00.221Z,18.07
2018-04-04T06:17:59.237Z,17.90
2018-04-04T06:18:59.267Z,18.12
2018-04-04T06:19:59.279Z,17.63
2018-04-04T06:20:59.382Z,18.78
2018-04-04T06:21:59.514Z,19.23
2018-04-04T06:22:59.320Z,19.07
2018-04-04T06:23:59.276Z,18.27
2018-04-04T06:24:59.297Z,18.50
2018-04-04T06:25:59.274Z,19.18
2018-04-04T06:26:59.298Z,17.22
2018-04-04T06:27:59.318Z,15.67
2018-04-04T06:28:59.314Z,14.12
2018-04-04T06:29:59.306Z,13.75
2018-04-04T06:30:59.301Z,13.30
2018-04-04T06:31:59.320Z,13.36
2018-04-04T06:32:59.343Z,13.08
2018-04-04T06:33:59.340Z,12.78
2018-04-04T06:34:59.355Z,13.01
2018-04-04T06:35:59.338Z,12.92
2018-04-04T06:36:59.321Z,13.00
2018-04-04T06:37:59.376Z,12.93
2018-04-04T06:38:59.321Z,12.95
2018-04-04T06:39:59.363Z,12.92
2018-04-04T06:40:59.394Z,12.92
2018-04-04T06:41:59.561Z,12.89
2018-04-04T06:42:59.422Z,12.93
2018-04-04T06:43:59.358Z,12.77
2018-04-04T06:44:59.396Z,12.97
2018-04-04T06:45:59.408Z,13.05
2018-04-04T06:46:59.344Z,13.05
2018-04-04T06:47:59.338Z,13.01
2018-04-04T06:49:00.240Z,13.17
2018-04-04T06:50:00.272Z,13.46
2018-04-04T06:50:59.369Z,14.09
2018-04-04T06:51:59.485Z,14.60
2018-04-04T06:52:59.508Z,14.18
2018-04-04T06:53:59.372Z,13.75
2018-04-04T06:54:59.381Z,13.55
2018-04-04T06:55:59.488Z,13.66
2018-04-04T06:56:59.484Z,13.63
2018-04-04T06:57:59.419Z,13.57
2018-04-04T06:58:59.494Z,13.59
2018-04-04T06:59:59.381Z,13.55
2018-04-04T07:00:59.438Z,13.62
2018-04-04T07:01:59.385Z,13.63
2018-04-04T07:02:59.750Z,13.69
2018-04-04T07:03:59.391Z,13.75
2018-04-04T07:04:59.589Z,13.25
2018-04-04T07:05:59.460Z,13.26
2018-04-04T07:06:59.473Z,13.36
2018-04-04T07:07:59.500Z,13.60
2018-04-04T07:08:59.527Z,13.45
2018-04-04T07:10:00.248Z,13.71
2018-04-04T07:10:59.476Z,13.75
2018-04-04T07:11:59.499Z,13.71
2018-04-04T07:12:59.497Z,13.60
2018-04-04T07:13:59.444Z,13.66
2018-04-04T07:14:59.421Z,13.66
2018-04-04T07:15:59.532Z,13.81
2018-04-04T07:16:59.458Z,13.78
2018-04-04T07:17:59.465Z,13.73
2018-04-04T07:18:59.647Z,14.00
2018-04-04T07:19:59.546Z,13.82
2018-04-04T07:21:00.247Z,13.64
2018-04-04T07:22:00.246Z,13.42
2018-04-04T07:22:59.490Z,13.30
2018-04-04T07:24:00.248Z,13.42
2018-04-04T07:24:59.491Z,13.49
2018-04-04T07:25:59.495Z,13.49
2018-04-04T07:26:59.556Z,13.45
2018-04-04T07:27:59.477Z,13.38
2018-04-04T07:28:59.575Z,13.32
2018-04-04T07:29:59.628Z,13.52
2018-04-04T07:30:59.536Z,13.51
2018-04-04T07:31:59.552Z,13.52
2018-04-04T07:32:59.719Z,13.42
2018-04-04T07:33:59.520Z,13.46
2018-04-04T07:34:59.581Z,13.55
2018-04-04T07:35:59.586Z,13.55
2018-04-04T07:37:00.447Z,13.70
2018-04-04T07:39:58.619Z,13.66
2018-04-04T22:00:57.914Z,12.20
2018-04-04T22:01:57.970Z,12.20
2018-04-04T22:02:57.896Z,12.10
2018-04-04T22:03:57.900Z,12.13
2018-04-04T22:04:57.892Z,12.09
2018-04-04T22:05:57.950Z,12.14
2018-04-04T22:06:57.922Z,12.23
2018-04-04T22:07:57.938Z,12.14
2018-04-04T22:08:57.920Z,12.21
2018-04-04T22:09:57.913Z,12.14
2018-04-04T22:10:57.936Z,12.20
2018-04-04T22:11:58.058Z,12.24
2018-04-04T22:12:57.976Z,12.19
2018-04-04T22:13:57.936Z,12.24
2018-04-04T22:14:57.997Z,12.17
2018-04-04T22:15:57.925Z,12.21
2018-04-04T22:16:57.935Z,12.17
2018-04-04T22:17:57.930Z,12.27
2018-04-04T22:18:57.930Z,12.31
2018-04-04T22:19:57.922Z,12.28
2018-04-04T22:20:57.982Z,12.27
2018-04-04T22:21:57.960Z,12.31
2018-04-04T22:22:57.967Z,12.28
2018-04-04T22:23:57.943Z,12.32
2018-04-04T22:24:57.962Z,12.35
2018-04-04T22:25:57.988Z,12.27
2018-04-04T22:26:57.965Z,12.28
2018-04-04T22:27:57.960Z,12.38
2018-04-04T22:28:57.970Z,12.27
2018-04-04T22:29:57.945Z,12.41
2018-04-04T22:30:57.948Z,12.32
2018-04-04T22:31:57.997Z,12.31
2018-04-04T22:32:57.974Z,12.38
2018-04-04T22:33:58.028Z,12.38
2018-04-04T22:34:57.955Z,12.38
2018-04-04T22:35:57.954Z,12.37
2018-04-04T22:36:57.962Z,12.37
2018-04-04T22:37:57.973Z,12.38
2018-04-04T22:38:57.959Z,12.41
2018-04-04T22:39:58.037Z,12.34
2018-04-04T22:40:58.047Z,12.34
2018-04-04T22:41:58.028Z,12.38
2018-04-04T22:42:58.017Z,12.37
2018-04-04T22:43:58.011Z,12.28
2018-04-04T22:44:58.009Z,12.35
2018-04-04T22:45:57.992Z,12.24
2018-04-04T22:46:58.003Z,12.35
2018-04-04T22:47:57.983Z,12.38
2018-04-04T22:48:57.977Z,12.35
2018-04-04T22:49:58.139Z,12.35
2018-04-04T22:50:57.989Z,12.42
2018-04-04T22:51:57.988Z,12.47
2018-04-04T22:52:57.983Z,12.41
2018-04-04T22:53:57.983Z,12.37
2018-04-04T22:54:57.992Z,12.34
2018-04-04T22:55:58.007Z,12.23
2018-04-04T22:56:58.766Z,12.31
2018-04-04T22:57:58.034Z,12.39
2018-04-04T22:58:58.011Z,12.35
2018-04-04T22:59:58.043Z,12.35
2018-04-04T23:00:58.032Z,12.39
2018-04-04T23:01:58.012Z,12.42
2018-04-04T23:02:58.034Z,12.41
2018-04-04T23:03:58.030Z,12.41
2018-04-04T23:04:58.044Z,12.46
2018-04-04T23:05:58.208Z,12.54
2018-04-04T23:06:58.012Z,12.53
2018-04-04T23:07:57.995Z,12.53
2018-04-04T23:08:58.019Z,12.54
2018-04-04T23:09:58.100Z,12.49
2018-04-04T23:10:58.000Z,12.52
2018-04-04T23:11:58.043Z,12.50
2018-04-04T23:12:58.050Z,12.52
2018-04-04T23:13:58.022Z,12.49
2018-04-04T23:14:58.033Z,12.50
2018-04-04T23:15:58.027Z,12.50
2018-04-04T23:16:58.034Z,12.38
2018-04-04T23:17:58.062Z,12.46
2018-04-04T23:18:58.036Z,12.49
2018-04-04T23:19:58.037Z,12.41
2018-04-04T23:20:58.046Z,12.47
2018-04-04T23:21:58.062Z,12.42
2018-04-04T23:22:58.028Z,12.38
2018-04-04T23:23:58.059Z,12.39
2018-04-04T23:24:58.094Z,12.42
2018-04-04T23:25:58.075Z,12.39
2018-04-04T23:26:58.082Z,12.45
2018-04-04T23:27:58.050Z,12.39
2018-04-04T23:28:58.037Z,12.37
2018-04-04T23:29:58.063Z,12.29
2018-04-04T23:30:58.033Z,12.20
2018-04-04T23:31:58.044Z,12.09
2018-04-04T23:32:58.073Z,12.13
2018-04-04T23:33:58.099Z,12.10
2018-04-04T23:34:58.068Z,12.10
2018-04-04T23:35:58.086Z,12.05
2018-04-04T23:36:58.071Z,12.10
2018-04-04T23:37:58.092Z,12.05
2018-04-04T23:38:58.059Z,12.02
2018-04-04T23:39:58.077Z,12.07
2018-04-04T23:40:58.077Z,12.01
2018-04-04T23:41:58.096Z,11.88
2018-04-04T23:42:58.093Z,11.96
2018-04-04T23:43:58.132Z,12.04
2018-04-04T23:44:58.068Z,11.94
2018-04-04T23:45:58.129Z,11.95
2018-04-04T23:46:58.125Z,11.91
2018-04-04T23:47:58.086Z,11.83
2018-04-04T23:48:58.067Z,11.88
2018-04-04T23:49:58.149Z,11.90
2018-04-04T23:50:58.078Z,11.83
2018-04-04T23:51:58.130Z,11.64
2018-04-04T23:52:58.111Z,11.64
2018-04-04T23:53:58.140Z,11.73
2018-04-04T23:54:58.093Z,11.67
2018-04-04T23:55:58.114Z,11.85
2018-04-04T23:56:58.127Z,11.72
2018-04-04T23:57:58.137Z,11.64
2018-04-04T23:58:58.116Z,11.69
2018-04-04T23:59:58.110Z,11.64
